createdAt,value
2019-01-30T00:03:34.473Z,98.70
2019-01-30T00:08:40.670Z,98.90
2019-01-30T00:13:46.551Z,99.00
2019-01-30T00:18:52.504Z,98.40
2019-01-30T00:23:58.476Z,98.30
2019-01-30T00:29:04.531Z,98.50
2019-01-30T00:34:10.629Z,98.60
2019-01-30T00:39:16.615Z,98.40
2019-01-30T00:44:22.670Z,98.40
2019-01-30T00:49:28.798Z,98.60
2019-01-30T00:54:34.818Z,98.50
2019-01-30T00:59:40.887Z,98.40
2019-01-30T01:04:46.871Z,98.20
2019-01-30T01:09:52.804Z,98.10
2019-01-30T01:14:58.824Z,98.30
2019-01-30T01:20:05.901Z,98.40
2019-01-30T01:25:14.345Z,98.60
2019-01-30T01:30:25.128Z,98.50
2019-01-30T01:35:30.252Z,98.40
2019-01-30T01:40:36.237Z,98.10
2019-01-30T01:45:42.228Z,98.40
2019-01-30T01:50:48.087Z,98.30
2019-01-30T01:55:54.157Z,98.20
2019-01-30T02:01:00.113Z,97.90
2019-01-30T02:06:06.424Z,98.20
2019-01-30T02:11:12.305Z,98.30
2019-01-30T02:16:18.058Z,98.30
2019-01-30T02:21:25.256Z,98.00
2019-01-30T02:26:31.345Z,98.40
2019-01-30T02:31:37.313Z,98.40
2019-01-30T02:36:58.782Z,98.40
2019-01-30T02:42:04.829Z,98.10
2019-01-30T02:47:10.772Z,98.30
2019-01-30T02:52:16.748Z,98.30
2019-01-30T02:57:22.937Z,98.30
2019-01-30T03:02:28.905Z,98.40
2019-01-30T03:07:34.980Z,97.70
2019-01-30T03:12:42.061Z,97.40
2019-01-30T03:17:48.189Z,98.00
2019-01-30T03:22:54.343Z,97.90
2019-01-30T03:28:00.376Z,97.90
2019-01-30T03:33:06.559Z,98.10
2019-01-30T03:38:12.663Z,98.10
2019-01-30T03:43:18.639Z,98.10
2019-01-30T03:48:24.752Z,98.30
2019-01-30T03:53:30.780Z,98.20
2019-01-30T03:58:36.872Z,98.40
2019-01-30T04:03:42.829Z,98.20
2019-01-30T04:08:49.022Z,98.50
2019-01-30T04:13:55.187Z,98.30
2019-01-30T04:19:01.171Z,98.10
2019-01-30T04:24:07.230Z,98.10
2019-01-30T04:29:13.295Z,98.10
2019-01-30T04:34:19.422Z,98.10
2019-01-30T04:39:25.582Z,98.10
2019-01-30T04:44:31.628Z,98.10
2019-01-30T04:49:37.688Z,98.30
2019-01-30T04:54:43.663Z,98.40
2019-01-30T04:59:49.798Z,98.70
2019-01-30T05:04:55.927Z,98.40
2019-01-30T05:10:02.003Z,98.60
2019-01-30T05:15:12.094Z,98.20
2019-01-30T05:20:19.103Z,98.10
2019-01-30T05:25:25.242Z,98.10
2019-01-30T05:30:32.364Z,98.20
2019-01-30T05:35:38.310Z,98.20
2019-01-30T05:40:44.377Z,98.20
2019-01-30T05:45:50.458Z,97.90
2019-01-30T05:50:56.582Z,98.10
2019-01-30T05:56:02.766Z,98.30
2019-01-30T06:01:08.906Z,97.90
2019-01-30T06:06:15.056Z,97.90
2019-01-30T06:11:21.062Z,97.90
2019-01-30T06:16:27.041Z,98.10
2019-01-30T06:21:33.186Z,98.10
2019-01-30T06:26:39.165Z,98.20
2019-01-30T06:31:45.164Z,98.10
2019-01-30T06:36:51.365Z,98.10
2019-01-30T06:41:57.586Z,98.30
2019-01-30T06:47:03.683Z,98.00
2019-01-30T06:52:09.629Z,98.00
2019-01-30T06:57:15.627Z,97.90
2019-01-30T07:02:31.581Z,97.60
2019-01-30T07:07:29.419Z,97.90
2019-01-30T07:12:35.456Z,98.10
2019-01-30T07:17:41.562Z,97.90
2019-01-30T07:22:47.637Z,97.40
2019-01-30T07:27:53.854Z,97.70
2019-01-30T07:32:59.960Z,97.80
2019-01-30T07:38:06.258Z,97.90
2019-01-30T07:43:12.243Z,97.90
2019-01-30T07:48:18.349Z,97.80
2019-01-30T07:53:24.495Z,98.10
2019-01-30T07:58:30.793Z,97.90
2019-01-30T08:03:38.975Z,97.80
2019-01-30T08:08:44.354Z,98.10
2019-01-30T08:13:50.546Z,98.10
2019-01-30T08:18:56.512Z,97.80
2019-01-30T08:24:02.973Z,97.90
2019-01-30T08:29:09.670Z,98.20
2019-01-30T08:34:15.775Z,98.40
2019-01-30T08:39:21.743Z,98.20
2019-01-30T08:44:27.603Z,97.60
2019-01-30T08:49:33.557Z,96.10
2019-01-30T08:54:39.767Z,94.50
2019-01-30T08:59:45.718Z,93.40
2019-01-30T09:04:51.680Z,92.10
2019-01-30T09:09:57.670Z,91.30
2019-01-30T09:15:03.750Z,91.80
2019-01-30T09:20:13.837Z,87.10
2019-01-30T09:25:21.396Z,85.40
2019-01-30T09:30:29.540Z,81.00
2019-01-30T09:35:35.728Z,82.60
2019-01-30T09:40:41.869Z,83.30
2019-01-30T09:45:47.967Z,84.40
2019-01-30T09:50:53.980Z,84.60
2019-01-30T09:56:00.025Z,83.90
2019-01-30T10:01:06.401Z,84.40
2019-01-30T10:06:12.468Z,84.00
2019-01-30T10:11:18.659Z,83.30
2019-01-30T10:16:24.711Z,84.20
2019-01-30T10:21:30.807Z,84.20
2019-01-30T10:26:36.884Z,83.80
2019-01-30T10:31:42.993Z,85.40
2019-01-30T10:36:49.123Z,84.10
2019-01-30T10:41:55.281Z,84.40
2019-01-30T10:47:01.296Z,83.60
2019-01-30T10:52:07.448Z,83.70
2019-01-30T10:57:13.437Z,84.10
2019-01-30T11:02:19.398Z,84.40
2019-01-30T11:07:25.452Z,84.80
2019-01-30T11:12:31.524Z,85.20
2019-01-30T11:17:37.527Z,85.30
2019-01-30T11:22:43.591Z,84.40
2019-01-30T11:27:49.545Z,83.60
2019-01-30T11:32:55.670Z,83.20
2019-01-30T11:38:01.821Z,82.90
2019-01-30T11:43:07.803Z,81.60
2019-01-30T11:48:13.942Z,81.30
2019-01-30T11:53:20.016Z,81.10
2019-01-30T11:58:26.090Z,80.50
2019-01-30T12:03:33.112Z,80.80
2019-01-30T12:08:39.385Z,80.80
2019-01-30T12:13:45.278Z,81.00
2019-01-30T12:18:51.333Z,81.40
2019-01-30T12:23:57.643Z,81.80
2019-01-30T12:29:03.703Z,81.60
2019-01-30T12:34:09.672Z,81.10
2019-01-30T12:39:15.757Z,82.60
2019-01-30T12:44:21.789Z,83.20
2019-01-30T12:49:27.795Z,82.50
2019-01-30T12:54:34.006Z,83.10
2019-01-30T12:59:40.017Z,82.60
2019-01-30T13:04:46.031Z,82.10
2019-01-30T13:09:52.007Z,81.50
2019-01-30T13:14:58.971Z,82.70
2019-01-30T13:20:06.598Z,82.30
2019-01-30T13:25:12.953Z,82.70
2019-01-30T13:30:22.532Z,81.10
2019-01-30T13:35:28.604Z,82.10
2019-01-30T13:40:36.320Z,81.00
2019-01-30T13:45:42.292Z,80.70
2019-01-30T13:50:48.375Z,80.70
2019-01-30T13:55:54.358Z,81.50
2019-01-30T14:01:01.385Z,83.90
2019-01-30T14:06:07.340Z,82.10
2019-01-30T14:11:13.157Z,83.20
2019-01-30T14:16:19.454Z,81.80
2019-01-30T14:21:25.669Z,82.70
2019-01-30T14:26:31.718Z,82.10
2019-01-30T14:31:37.887Z,82.30
2019-01-30T14:36:44.091Z,82.60
2019-01-30T14:41:50.043Z,82.50
2019-01-30T14:46:56.119Z,82.70
2019-01-30T14:52:02.273Z,84.50
2019-01-30T14:57:08.595Z,83.90
2019-01-30T15:02:14.880Z,84.10
2019-01-30T15:07:28.780Z,85.70
2019-01-30T15:12:28.738Z,85.10
2019-01-30T15:17:34.816Z,87.70
2019-01-30T15:22:40.897Z,88.40
2019-01-30T15:27:47.963Z,90.00
2019-01-30T15:32:54.071Z,90.90
2019-01-30T15:38:00.439Z,91.00
2019-01-30T15:43:06.536Z,91.70
2019-01-30T15:48:12.637Z,92.70
2019-01-30T15:53:21.026Z,93.40
2019-01-30T15:58:28.246Z,93.80
2019-01-30T16:03:34.322Z,94.10
2019-01-30T16:08:40.409Z,94.10
2019-01-30T16:13:46.360Z,94.60
2019-01-30T16:18:52.460Z,94.50
2019-01-30T16:23:58.485Z,94.70
2019-01-30T16:29:04.744Z,94.80
2019-01-30T16:34:10.730Z,95.10
2019-01-30T16:39:16.703Z,95.20
2019-01-30T16:44:22.723Z,95.10
2019-01-30T16:49:29.217Z,95.20
2019-01-30T16:54:35.587Z,95.40
2019-01-30T16:59:41.653Z,95.80
2019-01-30T17:04:47.851Z,95.50
2019-01-30T17:09:53.875Z,95.90
2019-01-30T17:14:59.825Z,96.10
2019-01-30T17:20:08.587Z,96.00
2019-01-30T17:25:15.570Z,96.30
2019-01-30T17:30:36.202Z,96.50
2019-01-30T17:35:42.950Z,96.40
2019-01-30T17:40:48.967Z,96.60
2019-01-30T17:45:55.309Z,96.60
2019-01-30T17:51:01.418Z,95.70
2019-01-30T17:56:07.905Z,94.70
2019-01-30T18:01:14.022Z,93.60
2019-01-30T18:06:29.519Z,93.20
2019-01-30T18:11:27.737Z,92.80
2019-01-30T18:16:33.794Z,93.20
2019-01-30T18:21:39.822Z,93.40
2019-01-30T18:26:45.900Z,93.70
2019-01-30T18:31:51.937Z,92.40
2019-01-30T18:36:58.024Z,92.20
2019-01-30T18:42:03.907Z,91.70
2019-01-30T18:47:09.912Z,91.50
2019-01-30T18:52:15.939Z,91.40
2019-01-30T18:57:22.030Z,91.40
2019-01-30T19:02:28.007Z,91.60
2019-01-30T19:07:34.063Z,91.80
2019-01-30T19:12:40.143Z,92.20
2019-01-30T19:17:46.211Z,92.00
2019-01-30T19:22:52.499Z,92.10
2019-01-30T19:27:58.580Z,91.50
2019-01-30T19:33:05.372Z,91.30
2019-01-30T19:38:11.536Z,91.70
2019-01-30T19:43:17.615Z,91.60
2019-01-30T19:48:24.407Z,91.60
2019-01-30T19:53:30.475Z,91.50
2019-01-30T19:58:36.469Z,91.50
2019-01-30T20:03:42.426Z,91.60
2019-01-30T20:08:48.384Z,91.50
2019-01-30T20:13:54.419Z,92.00
2019-01-30T20:19:00.429Z,91.50
2019-01-30T20:24:06.523Z,91.30
2019-01-30T20:29:12.577Z,91.40
2019-01-30T20:34:18.686Z,91.50
2019-01-30T20:39:24.640Z,91.90
2019-01-30T20:44:30.761Z,92.10
2019-01-30T20:49:36.988Z,92.20
2019-01-30T20:54:43.047Z,92.60
2019-01-30T20:59:49.144Z,92.80
2019-01-30T21:04:55.118Z,92.80
2019-01-30T21:10:01.069Z,92.80
2019-01-30T21:15:09.215Z,92.60
2019-01-30T21:20:15.588Z,92.40
2019-01-30T21:25:21.674Z,92.70
2019-01-30T21:30:29.917Z,92.40
2019-01-30T21:35:36.064Z,92.20
2019-01-30T21:40:43.153Z,92.40
2019-01-30T21:45:49.233Z,92.50
2019-01-30T21:50:56.435Z,93.40
2019-01-30T21:56:02.320Z,94.40
2019-01-30T22:01:08.395Z,95.10
2019-01-30T22:12:25.267Z,95.30
2019-01-30T22:17:31.235Z,95.00
2019-01-30T22:22:37.206Z,95.20
2019-01-30T22:27:44.280Z,95.60
2019-01-30T22:32:50.273Z,94.70
2019-01-30T22:37:57.242Z,95.40
2019-01-30T22:43:03.332Z,94.20
2019-01-30T22:48:09.451Z,95.50
2019-01-30T22:53:15.575Z,95.50
2019-01-30T22:58:21.740Z,96.20
2019-01-30T23:03:55.434Z,96.10
2019-01-30T23:09:29.562Z,96.10
2019-01-30T23:14:59.662Z,96.10
2019-01-30T23:20:30.938Z,96.50
2019-01-30T23:26:08.961Z,96.50
2019-01-30T23:31:27.808Z,96.80
2019-01-30T23:36:50.196Z,96.50
2019-01-30T23:42:26.380Z,97.00
2019-01-30T23:47:57.615Z,96.80
2019-01-30T23:53:43.026Z,96.80
2019-01-30T23:59:13.557Z,96.50
